WTB27M EDDS-LOWI
Flight info
| Callsign | WTB27M |
|---|---|
| Flight time | 0h 43m |
| Altitude | 19000 |
| Route | ABTAL4B/25 ABTAL L173 RIXED Y161 MANAL M736 TULSI TULSI3A |
| Aircraft | A319/M-SDE3FGHIRWY/LB1 |
Departure
| Time | 2026-05-07 17:26 |
|---|---|
| Airport | Stuttgart Airport (EDDS) |
Arrival
| Time | 2026-05-07 18:09 |
|---|---|
| Airport | Innsbruck Airport (LOWI) |
| Time | Latitude | Longitude | Altitude | Speed | Heading |
|---|---|---|---|---|---|
| 2026-05-07 17:06 | 48.68916 | 9.20089 | 1297 ft | 0 kts | 164° |
| 2026-05-07 17:20 | 48.68915 | 9.20089 | 1297 ft | 2 kts | 164° |
| 2026-05-07 17:20 | 48.68879 | 9.20105 | 1294 ft | 9 kts | 159° |
| 2026-05-07 17:21 | 48.68878 | 9.20205 | 1291 ft | 12 kts | 79° |
| 2026-05-07 17:21 | 48.68898 | 9.20349 | 1287 ft | 16 kts | 73° |
| 2026-05-07 17:21 | 48.68933 | 9.20529 | 1282 ft | 20 kts | 74° |
| 2026-05-07 17:21 | 48.68973 | 9.20745 | 1277 ft | 23 kts | 74° |
| 2026-05-07 17:22 | 48.69020 | 9.20990 | 1274 ft | 26 kts | 73° |
| 2026-05-07 17:22 | 48.69070 | 9.21253 | 1267 ft | 27 kts | 74° |
| 2026-05-07 17:22 | 48.69118 | 9.21505 | 1259 ft | 24 kts | 73° |
| 2026-05-07 17:22 | 48.69167 | 9.21764 | 1260 ft | 27 kts | 74° |
| 2026-05-07 17:23 | 48.69216 | 9.22024 | 1249 ft | 27 kts | 74° |
| 2026-05-07 17:23 | 48.69266 | 9.22285 | 1249 ft | 26 kts | 73° |
| 2026-05-07 17:23 | 48.69312 | 9.22530 | 1245 ft | 25 kts | 73° |
| 2026-05-07 17:23 | 48.69360 | 9.22783 | 1230 ft | 25 kts | 75° |
| 2026-05-07 17:24 | 48.69410 | 9.23044 | 1225 ft | 27 kts | 74° |
| 2026-05-07 17:24 | 48.69457 | 9.23296 | 1219 ft | 25 kts | 73° |
| 2026-05-07 17:24 | 48.69508 | 9.23564 | 1214 ft | 28 kts | 74° |
| 2026-05-07 17:24 | 48.69559 | 9.23829 | 1208 ft | 26 kts | 74° |
| 2026-05-07 17:25 | 48.69604 | 9.24067 | 1203 ft | 16 kts | 74° |
| 2026-05-07 17:25 | 48.69579 | 9.24247 | 1196 ft | 20 kts | 123° |
| 2026-05-07 17:25 | 48.69442 | 9.24326 | 1190 ft | 23 kts | 184° |
| 2026-05-07 17:25 | 48.69361 | 9.24159 | 1194 ft | 21 kts | 253° |
| 2026-05-07 17:26 | 48.69280 | 9.23744 | 1202 ft | 74 kts | 253° |
| 2026-05-07 17:26 | 48.69078 | 9.22679 | 1223 ft | 134 kts | 254° |
| 2026-05-07 17:26 | 48.68808 | 9.21202 | 1613 ft | 146 kts | 257° |
| 2026-05-07 17:26 | 48.68539 | 9.19716 | 2264 ft | 146 kts | 257° |
| 2026-05-07 17:27 | 48.68252 | 9.18240 | 2844 ft | 146 kts | 256° |
| 2026-05-07 17:27 | 48.67963 | 9.16770 | 3379 ft | 145 kts | 256° |
| 2026-05-07 17:27 | 48.67662 | 9.15225 | 3633 ft | 164 kts | 257° |
| 2026-05-07 17:27 | 48.67315 | 9.13437 | 3747 ft | 194 kts | 256° |
| 2026-05-07 17:28 | 48.66902 | 9.11365 | 4041 ft | 217 kts | 252° |
| 2026-05-07 17:28 | 48.65993 | 9.09436 | 4401 ft | 241 kts | 214° |
| 2026-05-07 17:28 | 48.64358 | 9.08787 | 5137 ft | 252 kts | 175° |
| 2026-05-07 17:28 | 48.62720 | 9.09719 | 6069 ft | 255 kts | 147° |
| 2026-05-07 17:29 | 48.61552 | 9.11698 | 6923 ft | 261 kts | 113° |
| 2026-05-07 17:29 | 48.61221 | 9.14424 | 7635 ft | 275 kts | 89° |
| 2026-05-07 17:29 | 48.61464 | 9.17377 | 8211 ft | 289 kts | 82° |
| 2026-05-07 17:29 | 48.61681 | 9.20437 | 9013 ft | 296 kts | 85° |
| 2026-05-07 17:30 | 48.61829 | 9.23562 | 9867 ft | 301 kts | 86° |
| 2026-05-07 17:30 | 48.62158 | 9.26726 | 10463 ft | 315 kts | 75° |
| 2026-05-07 17:30 | 48.62951 | 9.29943 | 10737 ft | 339 kts | 67° |
| 2026-05-07 17:30 | 48.63902 | 9.33330 | 11024 ft | 359 kts | 66° |
| 2026-05-07 17:31 | 48.64902 | 9.36823 | 11674 ft | 366 kts | 66° |
| 2026-05-07 17:31 | 48.65920 | 9.40379 | 12425 ft | 370 kts | 66° |
| 2026-05-07 17:31 | 48.66941 | 9.43963 | 13181 ft | 373 kts | 66° |
| 2026-05-07 17:31 | 48.67967 | 9.47591 | 13930 ft | 376 kts | 66° |
| 2026-05-07 17:32 | 48.68985 | 9.51215 | 14579 ft | 380 kts | 66° |
| 2026-05-07 17:32 | 48.70022 | 9.54912 | 15241 ft | 383 kts | 66° |
| 2026-05-07 17:32 | 48.71067 | 9.58645 | 15874 ft | 388 kts | 66° |
| 2026-05-07 17:32 | 48.72124 | 9.62433 | 16506 ft | 393 kts | 66° |
| 2026-05-07 17:33 | 48.73193 | 9.66270 | 17080 ft | 399 kts | 66° |
| 2026-05-07 17:33 | 48.74277 | 9.70164 | 17686 ft | 403 kts | 66° |
| 2026-05-07 17:33 | 48.75372 | 9.74103 | 18313 ft | 408 kts | 66° |
| 2026-05-07 17:33 | 48.76479 | 9.78085 | 18831 ft | 412 kts | 66° |
| 2026-05-07 17:34 | 48.77593 | 9.82094 | 18998 ft | 413 kts | 66° |
| 2026-05-07 17:34 | 48.78721 | 9.86166 | 19052 ft | 428 kts | 66° |
| 2026-05-07 17:34 | 48.79882 | 9.90366 | 19049 ft | 435 kts | 66° |
| 2026-05-07 17:34 | 48.81050 | 9.94604 | 19049 ft | 436 kts | 66° |
| 2026-05-07 17:35 | 48.82218 | 9.98858 | 19047 ft | 437 kts | 66° |
| 2026-05-07 17:35 | 48.83387 | 10.03114 | 19056 ft | 437 kts | 66° |
| 2026-05-07 17:35 | 48.84395 | 10.07470 | 19056 ft | 438 kts | 75° |
| 2026-05-07 17:35 | 48.84925 | 10.12014 | 19059 ft | 439 kts | 84° |
| 2026-05-07 17:36 | 48.84960 | 10.16641 | 19056 ft | 439 kts | 94° |
| 2026-05-07 17:36 | 48.84617 | 10.21186 | 19075 ft | 439 kts | 97° |
| 2026-05-07 17:36 | 48.84245 | 10.25782 | 19074 ft | 439 kts | 97° |
| 2026-05-07 17:36 | 48.83875 | 10.30386 | 19073 ft | 439 kts | 97° |
| 2026-05-07 17:37 | 48.83456 | 10.34975 | 19068 ft | 439 kts | 102° |
| 2026-05-07 17:37 | 48.82672 | 10.39149 | 19072 ft | 438 kts | 112° |
| 2026-05-07 17:37 | 48.81333 | 10.43406 | 19069 ft | 436 kts | 122° |
| 2026-05-07 17:37 | 48.79596 | 10.47153 | 19067 ft | 434 kts | 132° |
| 2026-05-07 17:38 | 48.77554 | 10.50514 | 19063 ft | 433 kts | 135° |
| 2026-05-07 17:38 | 48.75487 | 10.53820 | 19055 ft | 433 kts | 135° |
| 2026-05-07 17:38 | 48.73411 | 10.57134 | 19050 ft | 433 kts | 135° |
| 2026-05-07 17:38 | 48.71333 | 10.60441 | 19057 ft | 434 kts | 135° |
| 2026-05-07 17:39 | 48.69252 | 10.63748 | 19051 ft | 434 kts | 135° |
| 2026-05-07 17:39 | 48.67165 | 10.67059 | 19053 ft | 434 kts | 135° |
| 2026-05-07 17:39 | 48.65083 | 10.70366 | 19054 ft | 434 kts | 135° |
| 2026-05-07 17:39 | 48.62998 | 10.73680 | 19055 ft | 434 kts | 135° |
| 2026-05-07 17:40 | 48.60912 | 10.76989 | 19057 ft | 434 kts | 135° |
| 2026-05-07 17:40 | 48.58828 | 10.80289 | 19058 ft | 434 kts | 135° |
| 2026-05-07 17:40 | 48.56748 | 10.83594 | 19044 ft | 434 kts | 135° |
| 2026-05-07 17:40 | 48.54703 | 10.86862 | 19051 ft | 433 kts | 135° |
| 2026-05-07 17:41 | 48.52639 | 10.90171 | 19054 ft | 433 kts | 135° |
| 2026-05-07 17:41 | 48.50573 | 10.93481 | 19053 ft | 434 kts | 135° |
| 2026-05-07 17:41 | 48.48477 | 10.96830 | 19050 ft | 434 kts | 135° |
| 2026-05-07 17:41 | 48.46392 | 11.00123 | 19048 ft | 434 kts | 135° |
| 2026-05-07 17:42 | 48.44300 | 11.03389 | 19047 ft | 434 kts | 136° |
| 2026-05-07 17:42 | 48.42199 | 11.06653 | 19047 ft | 434 kts | 136° |
| 2026-05-07 17:42 | 48.40094 | 11.09913 | 19045 ft | 434 kts | 136° |
| 2026-05-07 17:42 | 48.38019 | 11.13124 | 19044 ft | 434 kts | 136° |
| 2026-05-07 17:43 | 48.35918 | 11.16376 | 19041 ft | 434 kts | 136° |
| 2026-05-07 17:43 | 48.33811 | 11.19635 | 19041 ft | 434 kts | 136° |
| 2026-05-07 17:43 | 48.31709 | 11.22889 | 19041 ft | 434 kts | 136° |
| 2026-05-07 17:43 | 48.29601 | 11.26149 | 19039 ft | 435 kts | 136° |
| 2026-05-07 17:44 | 48.27492 | 11.29407 | 19042 ft | 435 kts | 136° |
| 2026-05-07 17:44 | 48.25365 | 11.32635 | 19042 ft | 435 kts | 137° |
| 2026-05-07 17:44 | 48.23171 | 11.35748 | 19044 ft | 434 kts | 139° |
| 2026-05-07 17:44 | 48.20923 | 11.38772 | 19045 ft | 434 kts | 141° |
| 2026-05-07 17:45 | 48.18650 | 11.41747 | 19047 ft | 434 kts | 141° |
| 2026-05-07 17:45 | 48.16372 | 11.44718 | 19048 ft | 434 kts | 141° |
| 2026-05-07 17:45 | 48.14097 | 11.47707 | 19050 ft | 435 kts | 140° |
| 2026-05-07 17:45 | 48.11835 | 11.50711 | 19051 ft | 435 kts | 140° |
| 2026-05-07 17:46 | 48.09581 | 11.53728 | 19049 ft | 435 kts | 140° |
| 2026-05-07 17:46 | 48.07330 | 11.56759 | 19052 ft | 435 kts | 140° |
| 2026-05-07 17:46 | 48.05118 | 11.59742 | 19040 ft | 435 kts | 140° |
| 2026-05-07 17:46 | 48.02869 | 11.62767 | 19037 ft | 435 kts | 140° |
| 2026-05-07 17:47 | 48.00619 | 11.65780 | 19033 ft | 435 kts | 140° |
| 2026-05-07 17:47 | 47.98363 | 11.68789 | 19031 ft | 434 kts | 140° |
| 2026-05-07 17:47 | 47.96138 | 11.71749 | 18863 ft | 422 kts | 140° |
| 2026-05-07 17:47 | 47.93942 | 11.74614 | 18452 ft | 416 kts | 144° |
| 2026-05-07 17:48 | 47.91546 | 11.76957 | 17964 ft | 409 kts | 155° |
| 2026-05-07 17:48 | 47.88946 | 11.78579 | 17451 ft | 402 kts | 166° |
| 2026-05-07 17:48 | 47.86244 | 11.79456 | 16965 ft | 394 kts | 176° |
| 2026-05-07 17:48 | 47.83533 | 11.79620 | 16479 ft | 387 kts | 185° |
| 2026-05-07 17:49 | 47.80853 | 11.79459 | 15939 ft | 384 kts | 185° |
| 2026-05-07 17:49 | 47.78191 | 11.79309 | 15445 ft | 381 kts | 185° |
| 2026-05-07 17:49 | 47.75553 | 11.79163 | 14958 ft | 378 kts | 185° |
| 2026-05-07 17:49 | 47.72937 | 11.79024 | 14477 ft | 374 kts | 184° |
| 2026-05-07 17:50 | 47.70346 | 11.79266 | 14010 ft | 373 kts | 174° |
| 2026-05-07 17:50 | 47.67844 | 11.80174 | 13497 ft | 373 kts | 163° |
| 2026-05-07 17:50 | 47.65417 | 11.81524 | 12872 ft | 372 kts | 161° |
| 2026-05-07 17:50 | 47.63009 | 11.82880 | 12308 ft | 369 kts | 161° |
| 2026-05-07 17:51 | 47.60619 | 11.84225 | 11726 ft | 366 kts | 161° |
| 2026-05-07 17:51 | 47.58254 | 11.85551 | 11212 ft | 361 kts | 161° |
| 2026-05-07 17:51 | 47.55912 | 11.86862 | 10674 ft | 358 kts | 161° |
| 2026-05-07 17:51 | 47.53591 | 11.88160 | 10178 ft | 355 kts | 161° |
| 2026-05-07 17:52 | 47.51286 | 11.89448 | 9992 ft | 350 kts | 161° |
| 2026-05-07 17:52 | 47.49070 | 11.90684 | 9998 ft | 331 kts | 161° |
| 2026-05-07 17:52 | 47.46965 | 11.91858 | 9897 ft | 315 kts | 161° |
| 2026-05-07 17:52 | 47.44990 | 11.92961 | 9978 ft | 292 kts | 161° |
| 2026-05-07 17:53 | 47.43156 | 11.93979 | 10003 ft | 272 kts | 162° |
| 2026-05-07 17:53 | 47.41378 | 11.94421 | 10011 ft | 251 kts | 185° |
| 2026-05-07 17:53 | 47.39727 | 11.93846 | 10012 ft | 241 kts | 208° |
| 2026-05-07 17:53 | 47.38375 | 11.92438 | 10014 ft | 238 kts | 229° |
| 2026-05-07 17:54 | 47.37484 | 11.90433 | 10015 ft | 238 kts | 250° |
| 2026-05-07 17:54 | 47.37141 | 11.88063 | 10016 ft | 236 kts | 270° |
| 2026-05-07 17:54 | 47.37401 | 11.85690 | 10004 ft | 235 kts | 291° |
| 2026-05-07 17:54 | 47.38229 | 11.83620 | 10008 ft | 236 kts | 312° |
| 2026-05-07 17:55 | 47.39522 | 11.82132 | 10004 ft | 238 kts | 332° |
| 2026-05-07 17:55 | 47.41048 | 11.81162 | 10004 ft | 240 kts | 342° |
| 2026-05-07 17:55 | 47.42666 | 11.80931 | 9998 ft | 229 kts | 5° |
| 2026-05-07 17:55 | 47.44181 | 11.81547 | 10000 ft | 226 kts | 25° |
| 2026-05-07 17:56 | 47.45440 | 11.82858 | 10015 ft | 218 kts | 44° |
| 2026-05-07 17:56 | 47.46293 | 11.84623 | 9922 ft | 208 kts | 63° |
| 2026-05-07 17:56 | 47.46702 | 11.86639 | 9686 ft | 205 kts | 83° |
| 2026-05-07 17:56 | 47.46649 | 11.88722 | 9519 ft | 203 kts | 103° |
| 2026-05-07 17:57 | 47.46161 | 11.90664 | 9513 ft | 203 kts | 122° |
| 2026-05-07 17:57 | 47.45622 | 11.91787 | 9512 ft | 202 kts | 134° |
| 2026-05-07 17:57 | 47.44128 | 11.93411 | 9507 ft | 199 kts | 161° |
| 2026-05-07 17:57 | 47.42791 | 11.93556 | 9509 ft | 193 kts | 197° |
| 2026-05-07 17:58 | 47.41599 | 11.92698 | 9529 ft | 191 kts | 214° |
| 2026-05-07 17:58 | 47.40437 | 11.91669 | 9518 ft | 199 kts | 214° |
| 2026-05-07 17:58 | 47.39239 | 11.90609 | 9517 ft | 202 kts | 213° |
| 2026-05-07 17:58 | 47.38026 | 11.89536 | 9514 ft | 205 kts | 213° |
| 2026-05-07 17:59 | 47.36800 | 11.88453 | 9516 ft | 206 kts | 213° |
| 2026-05-07 17:59 | 47.35572 | 11.87368 | 9514 ft | 206 kts | 212° |
| 2026-05-07 17:59 | 47.34387 | 11.86187 | 9510 ft | 205 kts | 223° |
| 2026-05-07 17:59 | 47.33473 | 11.84594 | 9501 ft | 204 kts | 240° |
| 2026-05-07 18:00 | 47.32894 | 11.82709 | 9507 ft | 202 kts | 251° |
| 2026-05-07 18:00 | 47.32378 | 11.80766 | 9444 ft | 205 kts | 253° |
| 2026-05-07 18:00 | 47.32011 | 11.78757 | 9163 ft | 202 kts | 258° |
| 2026-05-07 18:00 | 47.31717 | 11.76730 | 8840 ft | 203 kts | 259° |
| 2026-05-07 18:01 | 47.31436 | 11.74676 | 8497 ft | 205 kts | 260° |
| 2026-05-07 18:01 | 47.31155 | 11.72604 | 8144 ft | 207 kts | 259° |
| 2026-05-07 18:01 | 47.30872 | 11.70520 | 7795 ft | 208 kts | 260° |
| 2026-05-07 18:01 | 47.30588 | 11.68428 | 7447 ft | 209 kts | 259° |
| 2026-05-07 18:02 | 47.30014 | 11.64218 | 6757 ft | 210 kts | 259° |
| 2026-05-07 18:02 | 47.29730 | 11.62133 | 6420 ft | 210 kts | 259° |
| 2026-05-07 18:02 | 47.29444 | 11.60046 | 6060 ft | 209 kts | 259° |
| 2026-05-07 18:03 | 47.29157 | 11.57948 | 5705 ft | 207 kts | 259° |
| 2026-05-07 18:03 | 47.28873 | 11.55878 | 5335 ft | 205 kts | 259° |
| 2026-05-07 18:03 | 47.28591 | 11.53828 | 4983 ft | 206 kts | 259° |
| 2026-05-07 18:03 | 47.28303 | 11.51755 | 4629 ft | 207 kts | 257° |
| 2026-05-07 18:04 | 47.27901 | 11.49735 | 4349 ft | 203 kts | 249° |
| 2026-05-07 18:04 | 47.27344 | 11.47845 | 4094 ft | 201 kts | 245° |
| 2026-05-07 18:04 | 47.26752 | 11.45990 | 4008 ft | 199 kts | 244° |
| 2026-05-07 18:04 | 47.26158 | 11.44150 | 4007 ft | 198 kts | 245° |
| 2026-05-07 18:05 | 47.25568 | 11.42326 | 4009 ft | 197 kts | 244° |
| 2026-05-07 18:05 | 47.24974 | 11.40504 | 4013 ft | 197 kts | 244° |
| 2026-05-07 18:05 | 47.24389 | 11.38707 | 3839 ft | 191 kts | 245° |
| 2026-05-07 18:05 | 47.23872 | 11.36951 | 3741 ft | 185 kts | 255° |
| 2026-05-07 18:06 | 47.23699 | 11.35736 | 3712 ft | 180 kts | 259° |
| 2026-05-07 18:06 | 47.23497 | 11.34070 | 3707 ft | 155 kts | 263° |
| 2026-05-07 18:06 | 47.23317 | 11.32055 | 3703 ft | 145 kts | 264° |
| 2026-05-07 18:06 | 47.23234 | 11.31085 | 3706 ft | 143 kts | 265° |
| 2026-05-07 18:07 | 47.23109 | 11.29635 | 3709 ft | 142 kts | 264° |
| 2026-05-07 18:07 | 47.22993 | 11.28190 | 3713 ft | 142 kts | 268° |
| 2026-05-07 18:07 | 47.23444 | 11.26483 | 3496 ft | 139 kts | 325° |
| 2026-05-07 18:07 | 47.24362 | 11.26269 | 3148 ft | 138 kts | 18° |
| 2026-05-07 18:08 | 47.24907 | 11.26767 | 2940 ft | 139 kts | 47° |
| 2026-05-07 18:08 | 47.25344 | 11.27964 | 2665 ft | 137 kts | 75° |
| 2026-05-07 18:08 | 47.25515 | 11.29353 | 2521 ft | 138 kts | 83° |
| 2026-05-07 18:08 | 47.25626 | 11.30759 | 2325 ft | 139 kts | 80° |
| 2026-05-07 18:09 | 47.25780 | 11.32154 | 2074 ft | 137 kts | 82° |
| 2026-05-07 18:09 | 47.25927 | 11.33513 | 1903 ft | 127 kts | 81° |
| 2026-05-07 18:09 | 47.26032 | 11.34468 | 1904 ft | 52 kts | 81° |
| 2026-05-07 18:09 | 47.26077 | 11.34915 | 1901 ft | 40 kts | 82° |
| 2026-05-07 18:10 | 47.26103 | 11.35182 | 1902 ft | 16 kts | 82° |
| 2026-05-07 18:10 | 47.26044 | 11.35262 | 1900 ft | 11 kts | 170° |
| 2026-05-07 18:10 | 47.26020 | 11.35269 | 1904 ft | 0 kts | 170° |
| 2026-05-07 18:11 | 47.26019 | 11.35269 | 1904 ft | 0 kts | 170° |
| 2026-05-07 18:11 | 47.26015 | 11.35270 | 1904 ft | 1 kts | 172° |
| 2026-05-07 18:12 | 47.25980 | 11.35277 | 1904 ft | 12 kts | 172° |
| 2026-05-07 18:12 | 47.25906 | 11.35249 | 1901 ft | 12 kts | 244° |
| 2026-05-07 18:12 | 47.25877 | 11.35174 | 1904 ft | 6 kts | 156° |
| 2026-05-07 18:12 | 47.25834 | 11.35178 | 1904 ft | 6 kts | 169° |
| 2026-05-07 18:13 | 47.25833 | 11.35178 | 1904 ft | 0 kts | 169° |